Time;durP1;ratioP1;P1;durP2;ratioP2;P2;SDS_P1;SDS_P2;PMS_P1;PMS_P2;Temp;Humidity;BMP_temperature;BMP_pressure;BME280_temperature;BME280_humidity;BME280_pressure;Samples;Min_cycle;Max_cycle;Signal;HPM_P1;HPM_P2
2023/07/08 00:00:00;;;;;;;4.68;4.28;;;;;;;13.26;100.00;102125.41;5020055;28;20202;-52
2023/07/08 00:02:25;;;;;;;4.93;4.35;;;;;;;13.26;100.00;102119.16;5014976;28;20202;-52
2023/07/08 00:04:51;;;;;;;5.00;4.50;;;;;;;13.26;100.00;102133.50;5018849;28;20271;-50
2023/07/08 00:07:20;;;;;;;4.25;3.85;;;;;;;13.41;100.00;102125.94;4999701;28;20177;-50
2023/07/08 00:09:45;;;;;;;4.35;3.95;;;;;;;13.42;100.00;102123.19;5015385;28;20532;-50
2023/07/08 00:12:11;;;;;;;4.43;4.10;;;;;;;13.31;100.00;102123.50;5019567;28;20214;-52
2023/07/08 00:14:37;;;;;;;5.25;4.10;;;;;;;13.25;100.00;102123.66;5018023;28;20243;-51
2023/07/08 00:17:10;;;;;;;5.15;3.97;;;;;;;13.22;100.00;102125.56;5020353;28;20179;-51
2023/07/08 00:19:35;;;;;;;5.55;4.03;;;;;;;13.25;100.00;102125.44;5016933;28;20172;-50
2023/07/08 00:22:01;;;;;;;4.70;4.30;;;;;;;13.27;100.00;102118.22;5018827;28;20305;-52
2023/07/08 00:24:26;;;;;;;3.90;3.60;;;;;;;13.29;100.00;102119.09;5015733;28;20282;-50
2023/07/08 00:26:52;;;;;;;7.05;4.03;;;;;;;13.24;100.00;102123.69;5019359;28;20234;-50
2023/07/08 00:29:18;;;;;;;4.50;4.10;;;;;;;13.18;100.00;102112.19;5018869;28;20179;-50
2023/07/08 00:31:43;;;;;;;3.80;3.50;;;;;;;13.23;100.00;102106.69;5014207;28;20559;-52
2023/07/08 00:34:09;;;;;;;4.40;4.00;;;;;;;12.99;100.00;102105.56;5021259;28;20196;-50
2023/07/08 00:36:35;;;;;;;7.50;4.43;;;;;;;12.91;100.00;102110.25;5022656;28;20179;-51
2023/07/08 00:39:00;;;;;;;4.80;4.40;;;;;;;12.85;100.00;102110.41;5014687;28;20192;-51
2023/07/08 00:41:31;;;;;;;5.43;4.93;;;;;;;12.84;100.00;102111.38;5017594;28;20184;-53
2023/07/08 00:43:58;;;;;;;4.20;3.80;;;;;;;12.92;100.00;102109.31;5013666;28;20204;-52
2023/07/08 00:46:27;;;;;;;4.68;4.28;;;;;;;12.87;100.00;102104.06;5019160;28;20200;-51
2023/07/08 00:49:08;;;;;;;4.47;4.07;;;;;;;13.05;100.00;102105.38;5015763;28;20212;-54
2023/07/08 00:51:37;;;;;;;4.65;4.25;;;;;;;12.93;100.00;102097.66;5017370;28;20218;-52
2023/07/08 00:54:04;;;;;;;6.20;5.00;;;;;;;12.86;100.00;102101.44;5022937;28;20291;-52
2023/07/08 00:56:34;;;;;;;5.20;4.80;;;;;;;12.82;100.00;102103.31;5020691;28;20499;-51
2023/07/08 00:59:03;;;;;;;5.70;4.55;;;;;;;12.74;100.00;102097.25;5019589;28;20599;-54
2023/07/08 01:01:34;;;;;;;6.28;5.30;;;;;;;12.72;100.00;102097.28;5013516;28;20607;-52
2023/07/08 01:04:12;;;;;;;7.28;5.20;;;;;;;12.66;100.00;102093.88;5019037;28;20697;-50
2023/07/08 01:06:44;;;;;;;6.13;5.53;;;;;;;12.65;100.00;102100.22;5015515;28;20211;-53
2023/07/08 01:09:12;;;;;;;7.70;5.40;;;;;;;12.57;100.00;102093.25;5023149;28;20517;-50
2023/07/08 01:11:40;;;;;;;5.93;5.40;;;;;;;12.51;100.00;102095.19;5018477;28;20534;-54
2023/07/08 01:14:09;;;;;;;6.43;5.82;;;;;;;12.48;100.00;102088.06;5017266;28;20188;-51
2023/07/08 01:16:35;;;;;;;6.10;5.43;;;;;;;12.55;100.00;102088.78;5012329;28;20531;-54
2023/07/08 01:19:02;;;;;;;5.43;4.82;;;;;;;12.64;100.00;102093.03;5022333;28;20184;-53
2023/07/08 01:21:34;;;;;;;5.38;4.60;;;;;;;12.58;100.00;102091.41;5012857;28;20189;-54
2023/07/08 01:24:03;;;;;;;6.97;5.55;;;;;;;12.46;100.00;102095.31;5018272;28;20214;-50
2023/07/08 01:26:31;;;;;;;5.90;5.40;;;;;;;12.47;100.00;102088.13;5018166;28;20322;-54
2023/07/08 01:28:58;;;;;;;5.53;5.07;;;;;;;12.46;100.00;102091.72;5012595;28;20288;-54
2023/07/08 01:31:24;;;;;;;6.53;5.40;;;;;;;12.36;100.00;102091.09;5015389;28;20840;-54
2023/07/08 01:33:52;;;;;;;6.78;6.07;;;;;;;12.32;100.00;102084.03;5014056;28;20327;-54
2023/07/08 01:36:18;;;;;;;7.07;5.38;;;;;;;12.30;100.00;102085.88;5018570;28;20191;-50
2023/07/08 01:38:44;;;;;;;6.63;6.03;;;;;;;12.23;100.00;102090.53;5059668;22;20216;-45
2023/07/08 01:41:13;;;;;;;6.95;6.30;;;;;;;12.32;100.00;102081.34;4992893;28;20178;-45
2023/07/08 01:43:38;;;;;;;5.50;5.00;;;;;;;12.45;100.00;102088.16;4983815;28;20655;-43
2023/07/08 01:46:13;;;;;;;4.80;4.45;;;;;;;12.51;100.00;102085.31;4981475;28;20220;-45
2023/07/08 01:48:42;;;;;;;6.15;5.65;;;;;;;12.34;100.00;102080.38;4987776;28;20193;-46
2023/07/08 01:51:08;;;;;;;6.13;5.53;;;;;;;12.30;100.00;102091.25;4987716;28;20186;-46
2023/07/08 01:53:37;;;;;;;5.75;5.18;;;;;;;12.35;100.00;102081.25;4989225;28;20518;-46
2023/07/08 01:56:04;;;;;;;5.90;5.30;;;;;;;12.39;100.00;102084.75;4994600;28;20652;-46
2023/07/08 01:58:30;;;;;;;5.88;5.18;;;;;;;12.30;100.00;102080.50;4991378;28;20664;-45
2023/07/08 02:00:56;;;;;;;6.45;5.85;;;;;;;12.15;100.00;102090.69;4988546;28;20317;-45
2023/07/08 02:03:23;;;;;;;7.38;5.63;;;;;;;12.09;100.00;102092.66;4983232;28;20184;-46
2023/07/08 02:05:49;;;;;;;9.27;6.40;;;;;;;12.15;100.00;102090.69;5001807;28;20209;-47
2023/07/08 02:08:15;;;;;;;6.57;5.70;;;;;;;12.15;100.00;102095.19;4983279;28;20192;-46
2023/07/08 02:10:42;;;;;;;6.65;6.05;;;;;;;12.09;100.00;102092.66;4987511;28;20195;-46
2023/07/08 02:13:07;;;;;;;6.90;6.20;;;;;;;12.04;100.00;102094.56;4965255;28;20193;-45
2023/07/08 02:15:34;;;;;;;7.90;6.05;;;;;;;12.02;100.00;102097.28;4987169;28;20590;-47
2023/07/08 02:17:59;;;;;;;8.57;6.40;;;;;;;11.92;100.00;102096.63;4990762;28;20181;-45
2023/07/08 02:20:25;;;;;;;8.63;6.72;;;;;;;11.86;100.00;102107.47;4987457;28;20170;-46
2023/07/08 02:22:51;;;;;;;7.25;6.47;;;;;;;11.92;100.00;102110.06;4987536;28;20173;-44
2023/07/08 02:25:17;;;;;;;6.82;6.22;;;;;;;12.05;100.00;102096.34;5005971;28;20236;-44
2023/07/08 02:27:44;;;;;;;7.30;6.68;;;;;;;11.99;100.00;102096.50;4986173;28;20181;-47
2023/07/08 02:30:09;;;;;;;8.95;6.15;;;;;;;11.91;100.00;102102.03;5001768;28;20264;-43
2023/07/08 02:32:38;;;;;;;7.32;6.35;;;;;;;11.90;100.00;102103.84;4990571;28;20266;-45
2023/07/08 02:35:07;;;;;;;6.00;5.45;;;;;;;11.99;100.00;102101.88;4985234;28;20204;-45
2023/07/08 02:37:33;;;;;;;6.90;5.40;;;;;;;11.97;100.00;102103.72;4984531;28;20277;-44
2023/07/08 02:39:58;;;;;;;7.10;6.43;;;;;;;11.86;100.00;102094.06;5012058;28;20276;-45
2023/07/08 02:42:24;;;;;;;6.57;5.90;;;;;;;11.88;100.00;102094.94;4991939;28;20620;-44
2023/07/08 02:44:50;;;;;;;8.73;6.50;;;;;;;11.81;100.00;102093.28;4992187;28;20693;-45
2023/07/08 02:47:15;;;;;;;6.78;6.07;;;;;;;11.74;100.00;102086.28;4993131;28;20224;-46
2023/07/08 02:49:41;;;;;;;8.15;6.75;;;;;;;11.74;100.00;102083.59;4989257;28;20221;-44
2023/07/08 02:52:06;;;;;;;6.53;5.88;;;;;;;11.80;100.00;102090.63;4986377;28;20193;-45
2023/07/08 02:54:32;;;;;;;5.95;5.45;;;;;;;11.88;100.00;102094.94;4989521;28;20561;-46
2023/07/08 02:56:57;;;;;;;6.65;5.97;;;;;;;11.85;100.00;102086.94;4985290;28;20657;-45
2023/07/08 02:59:23;;;;;;;6.68;6.07;;;;;;;11.81;100.00;102087.91;4987659;28;20185;-44
2023/07/08 03:01:50;;;;;;;6.50;5.90;;;;;;;11.76;100.00;102081.75;4990340;28;20385;-47
2023/07/08 03:04:16;;;;;;;5.80;5.20;;;;;;;11.78;100.00;102077.22;5001977;28;20359;-48
2023/07/08 03:06:45;;;;;;;5.22;4.82;;;;;;;11.90;100.00;102076.13;4986575;28;20190;-45
2023/07/08 03:09:12;;;;;;;5.85;4.57;;;;;;;11.95;100.00;102087.63;4984694;28;20301;-47
2023/07/08 03:11:38;;;;;;;5.95;5.45;;;;;;;11.81;100.00;102085.22;4990924;28;20251;-46
2023/07/08 03:14:04;;;;;;;6.53;6.00;;;;;;;11.78;100.00;102092.47;4985533;28;20202;-47
2023/07/08 03:16:30;;;;;;;5.45;5.05;;;;;;;11.88;100.00;102092.25;4986257;28;20352;-45
2023/07/08 03:18:56;;;;;;;6.95;6.07;;;;;;;11.82;100.00;102100.41;4985939;28;20181;-47
2023/07/08 03:21:22;;;;;;;7.53;6.82;;;;;;;11.75;100.00;102096.97;4990492;28;20181;-46
2023/07/08 03:23:49;;;;;;;7.13;6.45;;;;;;;11.81;100.00;102084.34;4985160;28;20189;-47
2023/07/08 03:26:17;;;;;;;6.00;5.40;;;;;;;11.90;100.00;102090.41;4981997;28;20263;-46
2023/07/08 03:28:46;;;;;;;7.78;5.50;;;;;;;11.89;100.00;102090.44;4990394;28;20193;-48
2023/07/08 03:31:12;;;;;;;6.28;5.68;;;;;;;11.80;100.00;102091.50;4988199;28;20177;-45
2023/07/08 03:33:38;;;;;;;7.05;5.88;;;;;;;11.75;100.00;102090.75;4989005;28;20199;-43
2023/07/08 03:36:24;;;;;;;5.90;5.30;;;;;;;11.84;100.00;102095.00;4990587;28;20356;-46
2023/07/08 03:38:52;;;;;;;8.48;5.10;;;;;;;11.97;100.00;102092.97;4989100;28;20320;-46
2023/07/08 03:41:18;;;;;;;5.55;4.88;;;;;;;12.03;100.00;102079.41;4986671;28;20301;-46
2023/07/08 03:43:43;;;;;;;5.43;5.00;;;;;;;12.06;100.00;102088.25;4969336;28;20193;-47
2023/07/08 03:46:15;;;;;;;6.35;5.35;;;;;;;12.08;100.00;102090.91;4981183;28;20327;-46
2023/07/08 03:48:41;;;;;;;7.78;5.50;;;;;;;11.98;100.00;102090.22;4989376;28;20240;-45
2023/07/08 03:51:29;;;;;;;12.98;6.13;;;;;;;11.95;100.00;102088.50;5000162;28;20193;-46
2023/07/08 03:53:54;;;;;;;7.68;5.47;;;;;;;11.95;100.00;102093.88;4985497;28;20194;-45
2023/07/08 03:56:21;;;;;;;7.28;5.57;;;;;;;11.93;100.00;102098.38;4989603;28;20188;-45
2023/07/08 03:58:47;;;;;;;7.90;5.35;;;;;;;12.01;100.00;102097.34;4988270;28;20173;-44
2023/07/08 04:01:24;;;;;;;10.95;5.85;;;;;;;11.99;100.00;102105.44;5001078;28;20361;-48
2023/07/08 04:03:53;;;;;;;5.97;5.38;;;;;;;12.15;100.00;102095.19;4986145;28;20660;-47
2023/07/08 04:06:18;;;;;;;5.45;4.90;;;;;;;12.19;100.00;102099.56;4985917;28;20192;-46
2023/07/08 04:08:46;;;;;;;5.85;5.03;;;;;;;12.24;100.00;102110.19;4985692;28;20193;-45
2023/07/08 04:11:17;;;;;;;6.93;4.68;;;;;;;12.35;100.00;102108.13;4986588;28;20220;-47
2023/07/08 04:13:43;;;;;;;7.93;5.13;;;;;;;12.42;100.00;102108.84;4989126;28;20636;-45
2023/07/08 04:16:17;;;;;;;5.50;5.00;;;;;;;12.48;100.00;102106.00;4985836;28;20239;-46
2023/07/08 04:18:42;;;;;;;5.45;4.68;;;;;;;12.52;100.00;102099.63;4987843;28;20422;-47
2023/07/08 04:21:08;;;;;;;9.57;5.10;;;;;;;12.42;100.00;102100.78;4986740;28;20231;-47
2023/07/08 04:23:33;;;;;;;7.55;4.85;;;;;;;12.55;100.00;102105.84;4986910;28;20546;-46
2023/07/08 04:26:00;;;;;;;6.72;5.53;;;;;;;12.51;100.00;102101.44;4990183;28;20200;-46
2023/07/08 04:28:25;;;;;;;12.60;6.43;;;;;;;12.46;100.00;102098.00;4987771;28;20193;-44
2023/07/08 04:30:51;;;;;;;6.63;5.15;;;;;;;12.51;100.00;102104.13;4986988;28;20239;-47
2023/07/08 04:33:16;;;;;;;6.40;4.40;;;;;;;12.56;100.00;102088.75;4989582;28;20181;-47
2023/07/08 04:35:43;;;;;;;6.70;5.10;;;;;;;12.67;100.00;102091.16;4986215;28;20659;-47
2023/07/08 04:38:22;;;;;;;8.98;5.20;;;;;;;12.67;100.00;102096.53;4983841;28;20666;-47
2023/07/08 04:40:49;;;;;;;5.72;4.85;;;;;;;12.76;100.00;102101.66;4985781;28;20189;-48
2023/07/08 04:43:15;;;;;;;7.97;5.07;;;;;;;12.89;100.00;102096.84;4982287;28;20615;-46
2023/07/08 04:45:43;;;;;;;8.40;4.50;;;;;;;12.98;100.00;102093.91;4983327;28;20197;-46
2023/07/08 04:48:14;;;;;;;7.70;5.00;;;;;;;13.09;100.00;102098.09;4987256;28;20190;-45
2023/07/08 04:50:41;;;;;;;5.95;4.47;;;;;;;13.19;100.00;102099.59;4989666;28;20189;-47
2023/07/08 04:53:06;;;;;;;6.53;5.18;;;;;;;13.34;100.00;102095.63;4989633;28;20188;-48
2023/07/08 04:55:32;;;;;;;6.32;4.82;;;;;;;13.42;100.00;102098.94;4989808;28;20193;-47
2023/07/08 04:57:57;;;;;;;8.23;6.07;;;;;;;13.52;100.00;102103.16;4989762;28;20657;-47
2023/07/08 05:00:23;;;;;;;5.25;4.75;;;;;;;13.63;100.00;102099.25;4989603;28;20177;-50
2023/07/08 05:02:49;;;;;;;6.13;4.85;;;;;;;13.76;100.00;102101.50;4989866;28;20190;-49
2023/07/08 05:05:14;;;;;;;11.00;5.93;;;;;;;13.88;100.00;102100.22;4990048;28;20293;-48
2023/07/08 05:07:40;;;;;;;5.97;5.38;;;;;;;14.00;100.00;102091.75;4989627;28;20181;-46
2023/07/08 05:10:06;;;;;;;5.32;4.80;;;;;;;14.09;100.00;102092.41;4990229;28;20262;-47
2023/07/08 05:12:31;;;;;;;5.53;4.90;;;;;;;14.23;100.00;102092.81;4989861;28;20252;-47
2023/07/08 05:14:57;;;;;;;5.50;5.00;;;;;;;14.41;100.00;102089.50;4989701;28;20328;-47
2023/07/08 05:17:24;;;;;;;8.05;6.90;;;;;;;14.57;100.00;102089.91;4990126;28;20177;-47
2023/07/08 05:19:51;;;;;;;8.35;6.85;;;;;;;14.80;100.00;102089.09;4989843;28;20170;-46
2023/07/08 05:22:18;;;;;;;8.63;6.63;;;;;;;15.01;100.00;102086.53;4989944;28;20593;-44
2023/07/08 05:24:43;;;;;;;6.00;5.50;;;;;;;15.14;100.00;102095.06;4989787;28;20351;-44
2023/07/08 05:27:09;;;;;;;8.68;6.45;;;;;;;15.31;100.00;102086.34;4992975;28;20205;-44
2023/07/08 05:29:34;;;;;;;6.72;5.97;;;;;;;15.49;100.00;102087.47;4998891;28;20201;-46
2023/07/08 05:32:00;;;;;;;7.43;6.70;;;;;;;15.64;100.00;102073.34;4986340;28;20592;-44
2023/07/08 05:34:25;;;;;;;7.00;6.28;;;;;;;15.78;100.00;102083.63;4993513;28;20205;-43
2023/07/08 05:36:51;;;;;;;7.38;6.53;;;;;;;15.90;100.00;102079.59;4991264;28;20461;-45
2023/07/08 05:39:16;;;;;;;10.23;6.13;;;;;;;16.06;100.00;102072.59;4992040;28;20299;-43
2023/07/08 05:41:42;;;;;;;7.10;5.13;;;;;;;16.25;100.00;102067.31;4993197;28;20265;-42
2023/07/08 05:44:07;;;;;;;8.43;4.90;;;;;;;16.43;100.00;102061.09;4993184;28;20197;-44
2023/07/08 05:46:33;;;;;;;9.07;4.93;;;;;;;16.58;100.00;102064.09;4992960;28;20197;-43
2023/07/08 05:48:58;;;;;;;7.45;4.85;;;;;;;16.71;100.00;102059.03;4990653;28;20197;-43
2023/07/08 05:51:24;;;;;;;5.25;4.63;;;;;;;16.85;100.00;102060.19;4983050;28;20180;-43
2023/07/08 05:53:49;;;;;;;6.70;4.20;;;;;;;16.96;100.00;102061.53;4990219;28;20181;-44
2023/07/08 05:56:15;;;;;;;7.30;4.15;;;;;;;17.18;100.00;102059.59;4992672;28;20169;-42
2023/07/08 05:58:40;;;;;;;4.97;3.90;;;;;;;17.22;100.00;102058.50;4989471;28;20224;-43
2023/07/08 06:01:06;;;;;;;8.20;4.30;;;;;;;17.43;100.00;102055.75;4988911;28;20187;-43
2023/07/08 06:03:32;;;;;;;5.25;4.10;;;;;;;17.43;100.00;102053.91;4984238;28;20180;-43
2023/07/08 06:05:57;;;;;;;6.88;4.13;;;;;;;17.55;100.00;102048.84;4991617;28;20201;-44
2023/07/08 06:08:23;;;;;;;4.97;3.67;;;;;;;17.66;100.00;102041.94;4990324;28;20834;-45
2023/07/08 06:10:50;;;;;;;8.15;4.05;;;;;;;17.82;100.00;102052.97;4987737;28;20177;-44
2023/07/08 06:13:15;;;;;;;4.78;3.72;;;;;;;17.99;97.41;102032.25;4985760;28;20175;-45
2023/07/08 06:15:41;;;;;;;7.50;3.78;;;;;;;18.12;95.93;102036.97;4989406;28;20265;-44
2023/07/08 06:18:07;;;;;;;6.13;3.40;;;;;;;18.29;94.99;102032.53;4988735;28;20534;-44
2023/07/08 06:20:33;;;;;;;5.35;3.80;;;;;;;18.49;95.06;102031.50;4994576;28;20213;-41
2023/07/08 06:22:58;;;;;;;5.35;3.88;;;;;;;18.55;94.10;102035.75;4987168;28;20176;-44
2023/07/08 06:25:24;;;;;;;5.95;4.20;;;;;;;18.97;92.67;102037.16;4988428;28;20208;-44
2023/07/08 06:27:49;;;;;;;5.82;3.80;;;;;;;19.35;89.97;102033.22;4987124;28;20204;-42
2023/07/08 06:30:15;;;;;;;3.95;3.55;;;;;;;19.57;86.28;102026.56;4984095;28;20314;-43
2023/07/08 06:32:40;;;;;;;5.38;3.55;;;;;;;19.70;83.96;102018.59;4985514;28;20659;-43
2023/07/08 06:35:06;;;;;;;5.65;3.58;;;;;;;19.68;82.36;102023.22;4989515;28;20204;-42
2023/07/08 06:37:32;;;;;;;6.40;3.40;;;;;;;19.94;82.17;102019.91;4984324;28;20614;-44
2023/07/08 06:39:57;;;;;;;8.77;3.70;;;;;;;20.31;81.45;102028.59;4987544;28;20268;-45
2023/07/08 06:42:23;;;;;;;3.47;3.20;;;;;;;20.07;81.76;102025.50;4981919;28;20568;-43
2023/07/08 06:44:59;;;;;;;6.10;3.45;;;;;;;20.46;80.71;102020.44;4985111;28;20204;-44
2023/07/08 06:47:25;;;;;;;5.72;3.05;;;;;;;20.47;81.59;102033.13;4991334;28;20192;-43
2023/07/08 06:49:50;;;;;;;6.10;3.55;;;;;;;20.82;80.49;102024.66;4993961;28;20237;-42
2023/07/08 06:52:16;;;;;;;4.72;3.20;;;;;;;21.00;78.29;102018.03;4980955;28;20185;-45
2023/07/08 06:54:41;;;;;;;6.47;3.85;;;;;;;20.54;76.66;102020.88;4982425;28;20558;-42
2023/07/08 06:57:07;;;;;;;7.43;3.75;;;;;;;20.89;74.90;102009.66;4982228;28;20193;-42
2023/07/08 06:59:33;;;;;;;3.30;2.80;;;;;;;21.29;73.99;102018.00;4987155;28;20184;-45
2023/07/08 07:01:58;;;;;;;6.15;2.88;;;;;;;21.30;72.78;102008.88;4980530;28;20197;-43
2023/07/08 07:04:24;;;;;;;5.93;2.70;;;;;;;21.51;72.44;102007.47;4989597;28;20714;-44
2023/07/08 07:06:49;;;;;;;5.70;3.67;;;;;;;21.81;71.38;102003.72;4984531;28;20189;-44
2023/07/08 07:09:15;;;;;;;6.78;3.22;;;;;;;21.68;70.91;102008.22;4981533;28;20224;-45
2023/07/08 07:11:40;;;;;;;3.95;3.22;;;;;;;22.18;71.05;101998.47;4993382;28;20264;-41
2023/07/08 07:14:06;;;;;;;7.25;3.20;;;;;;;22.45;70.77;102006.63;4981355;28;20209;-42
2023/07/08 07:16:31;;;;;;;5.38;3.10;;;;;;;22.54;69.49;101999.66;4988735;28;20199;-43
2023/07/08 07:18:57;;;;;;;9.02;3.10;;;;;;;22.57;68.94;102000.31;4984960;28;20271;-43
2023/07/08 07:21:22;;;;;;;7.22;3.03;;;;;;;22.62;67.89;101983.59;4986563;28;20260;-44
2023/07/08 07:23:48;;;;;;;5.82;3.13;;;;;;;22.21;68.61;101992.81;4985621;28;20173;-44
2023/07/08 07:26:14;;;;;;;2.90;2.50;;;;;;;22.92;66.88;101988.75;4987006;28;20205;-43
2023/07/08 07:28:39;;;;;;;7.15;3.00;;;;;;;22.87;64.93;101960.88;4981706;28;20169;-42
2023/07/08 07:31:10;;;;;;;3.20;2.75;;;;;;;23.31;63.97;101964.09;4987402;28;20173;-46
2023/07/08 07:33:36;;;;;;;5.28;3.22;;;;;;;23.02;63.90;101970.72;4996667;28;20185;-46
2023/07/08 07:36:02;;;;;;;7.45;2.78;;;;;;;23.28;63.17;101969.78;4985648;28;20169;-47
2023/07/08 07:38:28;;;;;;;5.10;3.30;;;;;;;23.12;62.61;101957.25;4989011;28;20184;-47
2023/07/08 07:40:55;;;;;;;7.15;3.00;;;;;;;23.81;62.41;101956.69;4986310;28;20196;-47
2023/07/08 07:43:21;;;;;;;6.20;3.03;;;;;;;23.91;61.06;101944.06;4982595;28;20204;-46
2023/07/08 07:45:51;;;;;;;4.07;2.78;;;;;;;23.76;59.87;101924.22;4983799;28;20229;-45
2023/07/08 07:48:16;;;;;;;4.45;2.95;;;;;;;23.85;59.76;101937.22;4983203;28;20260;-44
2023/07/08 07:50:46;;;;;;;4.57;2.90;;;;;;;23.69;60.26;101933.84;4985611;28;21007;-48
2023/07/08 07:53:11;;;;;;;4.65;2.40;;;;;;;23.07;59.33;101923.03;4991357;28;20172;-47
2023/07/08 07:55:37;;;;;;;7.32;3.10;;;;;;;23.45;59.83;101931.97;4987266;28;20255;-44
2023/07/08 07:58:02;;;;;;;4.55;3.10;;;;;;;23.65;59.00;101929.59;4984142;28;20192;-46
2023/07/08 08:00:29;;;;;;;5.47;3.10;;;;;;;23.56;58.06;101925.69;4986620;28;20546;-46
2023/07/08 08:02:55;;;;;;;5.75;2.63;;;;;;;24.07;58.42;101941.00;4979824;28;20260;-46
2023/07/08 08:05:20;;;;;;;5.38;2.53;;;;;;;24.26;57.21;101930.34;4983042;28;20288;-46
2023/07/08 08:07:47;;;;;;;5.35;3.17;;;;;;;23.90;56.33;101909.47;4981900;28;20219;-46
2023/07/08 08:10:14;;;;;;;5.50;2.95;;;;;;;23.90;57.11;101922.28;4978901;28;20607;-44
2023/07/08 08:12:39;;;;;;;5.80;3.30;;;;;;;23.42;58.64;101932.22;4978847;28;20177;-46
2023/07/08 08:15:05;;;;;;;9.18;3.05;;;;;;;23.85;57.91;101919.91;4984099;28;20578;-46
2023/07/08 08:17:31;;;;;;;5.13;2.67;;;;;;;24.04;58.92;101931.16;4986646;28;20184;-44
2023/07/08 08:19:56;;;;;;;3.60;2.63;;;;;;;24.25;58.89;101942.31;4982507;28;20230;-46
2023/07/08 08:22:22;;;;;;;3.30;2.33;;;;;;;24.55;56.95;101931.81;4977760;28;20224;-47
2023/07/08 08:24:47;;;;;;;5.43;3.25;;;;;;;24.28;56.68;101932.97;4985555;28;20221;-45
2023/07/08 08:27:13;;;;;;;10.43;2.72;;;;;;;24.57;56.68;101919.72;4985416;28;20189;-45
2023/07/08 08:29:38;;;;;;;6.25;2.75;;;;;;;24.94;57.20;101930.44;4987766;28;20185;-44
2023/07/08 08:32:04;;;;;;;4.45;2.55;;;;;;;25.20;55.68;101914.63;4974013;28;20220;-46
2023/07/08 08:34:29;;;;;;;5.22;3.08;;;;;;;25.12;55.97;101919.81;4978955;28;20667;-47
2023/07/08 08:36:55;;;;;;;4.05;2.67;;;;;;;25.36;55.18;101914.19;4978903;28;20166;-47
2023/07/08 08:39:21;;;;;;;8.25;2.90;;;;;;;25.33;55.86;101925.44;4979547;28;20189;-46
2023/07/08 08:41:53;;;;;;;5.35;2.70;;;;;;;25.26;55.37;101919.59;4979774;28;20168;-47
2023/07/08 08:44:28;;;;;;;5.28;2.30;;;;;;;25.09;54.78;101911.88;4984046;28;20184;-45
2023/07/08 08:47:30;;;;;;;4.07;2.85;;;;;;;25.80;54.80;101909.56;4988831;28;20282;-47
2023/07/08 08:50:03;;;;;;;6.90;2.80;;;;;;;25.98;52.76;101898.91;4987484;28;20193;-48
2023/07/08 08:52:29;;;;;;;4.22;2.40;;;;;;;25.62;52.43;101886.44;4982217;28;20170;-45
2023/07/08 08:54:55;;;;;;;5.53;2.80;;;;;;;24.92;53.22;101899.53;4983652;28;20517;-46
2023/07/08 08:57:33;;;;;;;6.90;2.50;;;;;;;25.13;52.40;101877.72;4984024;28;20184;-46
2023/07/08 08:59:59;;;;;;;5.85;2.53;;;;;;;25.28;52.70;101878.34;4986057;28;20308;-45
2023/07/08 09:02:40;;;;;;;5.90;2.20;;;;;;;25.71;53.19;101888.38;4982650;28;20185;-46
2023/07/08 09:05:09;;;;;;;3.40;2.50;;;;;;;26.14;50.43;101857.22;4986931;28;20223;-45
2023/07/08 09:07:55;;;;;;;4.57;2.70;;;;;;;25.80;49.64;101842.78;4989365;28;20254;-48
2023/07/08 09:10:29;;;;;;;3.20;2.15;;;;;;;25.66;49.94;101855.84;4985685;28;20212;-45
2023/07/08 09:12:57;;;;;;;3.92;2.70;;;;;;;25.63;51.18;101874.47;4983875;28;20182;-45
2023/07/08 09:15:25;;;;;;;5.22;2.22;;;;;;;25.49;53.63;101894.84;4981445;28;20250;-45
2023/07/08 09:17:56;;;;;;;6.70;2.65;;;;;;;25.39;54.75;101907.59;4984463;28;20173;-45
2023/07/08 09:20:30;;;;;;;5.10;2.35;;;;;;;24.46;56.17;101920.53;4989729;28;20248;-46
2023/07/08 09:23:01;;;;;;;5.85;2.42;;;;;;;24.71;57.37;101939.66;4981399;28;20192;-43
2023/07/08 09:25:26;;;;;;;8.18;2.80;;;;;;;25.28;57.34;101938.69;4987861;28;20224;-47
2023/07/08 09:27:52;;;;;;;3.92;2.92;;;;;;;25.43;54.87;101915.44;4980043;28;20174;-46
2023/07/08 09:30:21;;;;;;;3.75;2.53;;;;;;;25.32;54.94;101915.47;4980206;28;20189;-46
2023/07/08 09:32:48;;;;;;;5.65;2.50;;;;;;;25.53;54.44;101914.66;4988587;28;20243;-46
2023/07/08 09:35:45;;;;;;;6.93;2.47;;;;;;;25.37;54.00;101891.25;4987220;28;20507;-47
2023/07/08 09:38:16;;;;;;;5.05;2.35;;;;;;;25.66;54.45;101901.63;4980741;28;20683;-48
2023/07/08 09:40:48;;;;;;;6.60;2.47;;;;;;;25.08;55.01;101902.78;4982102;28;20250;-45
2023/07/08 09:43:37;;;;;;;4.93;2.55;;;;;;;25.52;54.13;101897.34;4989095;28;20190;-47
2023/07/08 09:46:03;;;;;;;6.78;2.25;;;;;;;26.12;54.68;101905.06;4981941;28;20329;-45
2023/07/08 09:48:36;;;;;;;5.50;2.35;;;;;;;25.49;54.60;101893.00;4983421;28;20241;-44
2023/07/08 09:51:02;;;;;;;4.18;2.50;;;;;;;25.07;55.29;101909.25;4986001;28;20182;-44
2023/07/08 09:53:28;;;;;;;4.72;2.53;;;;;;;25.88;53.36;101890.56;4985439;28;20181;-48
2023/07/08 09:55:57;;;;;;;5.82;2.75;;;;;;;25.63;53.02;101879.97;4984965;28;20219;-46
2023/07/08 09:58:34;;;;;;;6.82;2.50;;;;;;;25.64;52.48;101881.69;4988555;28;20172;-45
2023/07/08 10:01:10;;;;;;;4.57;2.55;;;;;;;25.77;52.88;101890.59;4983400;28;20174;-45
2023/07/08 10:03:36;;;;;;;6.10;2.40;;;;;;;25.35;52.67;101886.91;4984276;28;20181;-46
2023/07/08 10:06:22;;;;;;;5.18;2.65;;;;;;;25.29;53.86;101900.13;4982279;28;20290;-45
2023/07/08 10:08:48;;;;;;;3.08;2.60;;;;;;;25.34;53.17;101883.28;5000776;28;20193;-45
2023/07/08 10:11:13;;;;;;;3.58;2.42;;;;;;;25.22;53.38;101898.03;4981849;28;20179;-46
2023/07/08 10:13:44;;;;;;;3.85;2.20;;;;;;;25.46;52.88;101882.25;4980817;28;20200;-47
2023/07/08 10:16:15;;;;;;;3.20;2.17;;;;;;;25.36;52.49;101881.28;4982520;28;20170;-46
2023/07/08 10:18:41;;;;;;;6.70;2.53;;;;;;;25.47;51.97;101878.53;4983286;28;20588;-44
2023/07/08 10:21:42;;;;;;;4.00;2.00;;;;;;;26.13;52.68;101884.81;4983586;28;20180;-45
2023/07/08 10:24:30;;;;;;;5.40;2.15;;;;;;;26.56;51.52;101890.16;4982312;28;20320;-47
2023/07/08 10:27:30;;;;;;;3.20;1.90;;;;;;;25.69;50.12;101852.84;4982977;28;20216;-44
2023/07/08 10:30:20;;;;;;;4.43;2.15;;;;;;;25.47;51.21;101864.81;4985471;28;20188;-43
2023/07/08 10:33:01;;;;;;;6.75;2.10;;;;;;;25.60;51.62;101866.47;4982794;28;20173;-43
2023/07/08 10:35:33;;;;;;;5.03;2.42;;;;;;;26.10;49.67;101853.00;4988577;28;20216;-46
2023/07/08 10:38:36;;;;;;;3.67;2.00;;;;;;;25.76;50.02;101858.69;4987345;28;20173;-45
2023/07/08 10:41:17;;;;;;;5.75;2.17;;;;;;;25.47;50.77;101862.06;4982952;28;20625;-46
2023/07/08 10:44:07;;;;;;;4.57;2.10;;;;;;;25.53;50.04;101843.31;4986563;28;20187;-46
2023/07/08 10:47:04;;;;;;;2.22;1.95;;;;;;;25.47;50.45;101847.44;4982542;28;20228;-45
2023/07/08 10:49:48;;;;;;;7.90;2.00;;;;;;;25.93;50.40;101848.97;4981627;28;20185;-45
2023/07/08 10:52:33;;;;;;;4.35;2.30;;;;;;;25.95;50.42;101857.09;4983226;28;20180;-44
2023/07/08 10:55:17;;;;;;;4.13;1.92;;;;;;;25.80;51.38;101868.41;4978098;28;20278;-46
2023/07/08 10:57:55;;;;;;;5.03;2.10;;;;;;;25.78;49.65;101850.28;4983639;28;20211;-45
2023/07/08 11:00:51;;;;;;;5.10;1.98;;;;;;;25.92;49.11;101851.88;4986096;28;20530;-47
2023/07/08 11:03:35;;;;;;;4.20;2.40;;;;;;;26.08;49.32;101846.78;4971733;28;20204;-46
2023/07/08 11:06:09;;;;;;;1.95;1.75;;;;;;;25.73;49.90;101841.59;4982108;28;20277;-45
2023/07/08 11:08:50;;;;;;;5.07;2.47;;;;;;;25.97;49.60;101847.72;4978375;28;20188;-45
2023/07/08 11:11:32;;;;;;;6.13;2.13;;;;;;;26.07;48.41;101828.56;4998286;28;20255;-47
2023/07/08 11:14:15;;;;;;;3.85;2.20;;;;;;;26.52;47.56;101819.94;4979121;28;20201;-45
2023/07/08 11:16:47;;;;;;;2.78;1.83;;;;;;;26.18;47.99;101831.22;4979108;28;20243;-46
2023/07/08 11:19:19;;;;;;;4.43;2.20;;;;;;;26.65;47.60;101826.09;4980666;28;20188;-43
2023/07/08 11:21:50;;;;;;;2.25;1.92;;;;;;;26.53;48.45;101829.94;4979192;28;20659;-44
2023/07/08 11:24:35;;;;;;;4.80;2.50;;;;;;;26.93;46.50;101802.44;4981113;28;20267;-47
2023/07/08 11:27:14;;;;;;;2.92;1.88;;;;;;;27.02;47.02;101803.47;4980822;28;20207;-46
2023/07/08 11:29:48;;;;;;;2.70;2.22;;;;;;;26.38;46.51;101793.72;4980320;28;20613;-46